Time;durP1;ratioP1;P1;durP2;ratioP2;P2;SDS_P1;SDS_P2;PMS_P1;PMS_P2;Temp;Humidity;BMP_temperature;BMP_pressure;BME280_temperature;BME280_humidity;BME280_pressure;Samples;Min_cycle;Max_cycle;Signal;HPM_P1;HPM_P2
2022/10/12 00:00:47;;;;;;;8.73;2.72;;;;;;;;;;5013067;28;20612;-63
2022/10/12 00:03:12;;;;;;;10.90;2.80;;;;;;;;;;5013591;28;20213;-63
2022/10/12 00:05:38;;;;;;;12.25;2.88;;;;;;;;;;5013847;28;20228;-63
2022/10/12 00:08:03;;;;;;;11.90;2.90;;;;;;;;;;5012684;28;20243;-63
2022/10/12 00:10:28;;;;;;;8.68;2.47;;;;;;;;;;5013803;28;20216;-63
2022/10/12 00:12:53;;;;;;;10.35;2.83;;;;;;;;;;5013691;28;20220;-63
2022/10/12 00:15:19;;;;;;;9.23;2.50;;;;;;;;;;5012552;28;20227;-63
2022/10/12 00:17:44;;;;;;;11.45;2.40;;;;;;;;;;5013905;28;20299;-63
2022/10/12 00:20:09;;;;;;;11.20;2.83;;;;;;;;;;5013324;28;20749;-63
2022/10/12 00:22:35;;;;;;;14.00;2.53;;;;;;;;;;5013016;28;20295;-63
2022/10/12 00:25:00;;;;;;;14.05;2.72;;;;;;;;;;5013482;28;20243;-63
2022/10/12 00:27:25;;;;;;;11.15;3.28;;;;;;;;;;5012840;28;20721;-63
2022/10/12 00:29:50;;;;;;;8.60;2.55;;;;;;;;;;5013189;28;20224;-63
2022/10/12 00:32:16;;;;;;;10.38;3.25;;;;;;;;;;5013179;28;20223;-63
2022/10/12 00:34:41;;;;;;;9.57;2.58;;;;;;;;;;5012697;28;20220;-63
2022/10/12 00:37:06;;;;;;;13.70;2.97;;;;;;;;;;5012961;28;20216;-64
2022/10/12 00:39:31;;;;;;;15.60;3.10;;;;;;;;;;5013274;28;20601;-63
2022/10/12 00:41:57;;;;;;;11.02;3.30;;;;;;;;;;5012358;28;20215;-63
2022/10/12 00:44:37;;;;;;;10.30;3.10;;;;;;;;;;5013042;28;20209;-63
2022/10/12 00:47:07;;;;;;;9.73;3.50;;;;;;;;;;5012636;28;20232;-64
2022/10/12 00:49:32;;;;;;;10.98;2.75;;;;;;;;;;5011314;28;20230;-63
2022/10/12 00:51:59;;;;;;;11.02;3.20;;;;;;;;;;5011894;28;20204;-64
2022/10/12 00:54:25;;;;;;;13.15;3.28;;;;;;;;;;5010375;28;20251;-66
2022/10/12 00:56:51;;;;;;;13.73;3.20;;;;;;;;;;5008577;28;20803;-64
2022/10/12 00:59:18;;;;;;;10.73;2.80;;;;;;;;;;5000660;28;20246;-64
2022/10/12 01:01:43;;;;;;;10.82;2.80;;;;;;;;;;5002952;28;20303;-64
2022/10/12 01:04:09;;;;;;;13.60;3.15;;;;;;;;;;5000478;28;21074;-64
2022/10/12 01:06:34;;;;;;;12.65;3.30;;;;;;;;;;5002662;28;20742;-65
2022/10/12 01:08:59;;;;;;;14.68;3.13;;;;;;;;;;5003328;28;20228;-64
2022/10/12 01:11:25;;;;;;;14.43;3.72;;;;;;;;;;4999182;28;20209;-64
2022/10/12 01:13:50;;;;;;;11.23;2.92;;;;;;;;;;4989172;28;20219;-65
2022/10/12 01:16:23;;;;;;;10.57;3.10;;;;;;;;;;4990095;28;20224;-64
2022/10/12 01:18:54;;;;;;;11.32;2.70;;;;;;;;;;4990716;28;20216;-64
2022/10/12 01:21:19;;;;;;;15.43;3.50;;;;;;;;;;4995981;28;20219;-64
2022/10/12 01:24:02;;;;;;;14.07;3.00;;;;;;;;;;4995842;28;20217;-64
2022/10/12 01:26:38;;;;;;;12.80;2.88;;;;;;;;;;4996156;28;20216;-64
2022/10/12 01:29:14;;;;;;;11.40;2.90;;;;;;;;;;4995574;28;20710;-65
2022/10/12 01:31:39;;;;;;;11.32;2.92;;;;;;;;;;4996360;28;20223;-64
2022/10/12 01:34:17;;;;;;;15.35;3.20;;;;;;;;;;4994431;28;20224;-64
2022/10/12 01:36:43;;;;;;;13.98;3.47;;;;;;;;;;4989452;28;20223;-65
2022/10/12 01:39:17;;;;;;;11.95;3.05;;;;;;;;;;4988475;28;20235;-64
2022/10/12 01:41:44;;;;;;;12.75;2.95;;;;;;;;;;4991235;28;20871;-65
2022/10/12 01:44:09;;;;;;;11.70;2.92;;;;;;;;;;4995424;28;20571;-64
2022/10/12 01:46:37;;;;;;;12.57;2.80;;;;;;;;;;4995602;28;20216;-64
2022/10/12 01:49:02;;;;;;;17.00;3.15;;;;;;;;;;4994901;28;20323;-64
2022/10/12 01:51:34;;;;;;;16.02;3.10;;;;;;;;;;4996174;28;20277;-65
2022/10/12 01:54:08;;;;;;;10.15;2.35;;;;;;;;;;4995504;28;20216;-65
2022/10/12 01:56:34;;;;;;;11.70;2.60;;;;;;;;;;4992705;28;20204;-65
2022/10/12 01:59:06;;;;;;;14.88;3.00;;;;;;;;;;4998276;28;20229;-65
2022/10/12 02:01:33;;;;;;;9.38;2.08;;;;;;;;;;5004923;28;20284;-65
2022/10/12 02:04:01;;;;;;;14.60;2.88;;;;;;;;;;5007204;28;20219;-64
2022/10/12 02:06:27;;;;;;;13.73;2.92;;;;;;;;;;5008394;28;20267;-64
2022/10/12 02:08:54;;;;;;;12.88;2.58;;;;;;;;;;5010066;28;20256;-64
2022/10/12 02:11:20;;;;;;;9.98;2.88;;;;;;;;;;5009365;28;20699;-64
2022/10/12 02:13:47;;;;;;;11.85;2.70;;;;;;;;;;5008845;28;20211;-65
2022/10/12 02:16:14;;;;;;;10.10;2.80;;;;;;;;;;5009335;28;20224;-65
2022/10/12 02:18:41;;;;;;;14.10;3.17;;;;;;;;;;5009597;28;20219;-64
2022/10/12 02:21:07;;;;;;;11.98;3.20;;;;;;;;;;5008594;28;20223;-64
2022/10/12 02:23:32;;;;;;;11.13;2.95;;;;;;;;;;5009599;28;20208;-64
2022/10/12 02:25:57;;;;;;;11.48;2.88;;;;;;;;;;5009002;28;20216;-64
2022/10/12 02:28:22;;;;;;;11.65;2.80;;;;;;;;;;4993806;28;20827;-65
2022/10/12 02:30:51;;;;;;;11.82;2.97;;;;;;;;;;4990814;28;20722;-65
2022/10/12 02:33:20;;;;;;;12.07;2.60;;;;;;;;;;4999193;28;20224;-65
2022/10/12 02:35:49;;;;;;;12.98;3.08;;;;;;;;;;5002324;28;20274;-64
2022/10/12 02:38:18;;;;;;;11.10;3.08;;;;;;;;;;5002294;28;20220;-65
2022/10/12 02:40:46;;;;;;;13.10;3.08;;;;;;;;;;5002878;28;20246;-64
2022/10/12 02:43:14;;;;;;;13.32;4.10;;;;;;;;;;5003214;28;20220;-65
2022/10/12 02:45:39;;;;;;;9.00;3.35;;;;;;;;;;5004452;28;20216;-64
2022/10/12 02:48:05;;;;;;;11.82;3.90;;;;;;;;;;4998176;28;20217;-64
2022/10/12 02:50:30;;;;;;;12.73;3.65;;;;;;;;;;4995161;28;20227;-64
2022/10/12 02:52:55;;;;;;;10.45;3.70;;;;;;;;;;4995087;28;20312;-65
2022/10/12 02:55:20;;;;;;;15.00;3.70;;;;;;;;;;4997377;28;21081;-64
2022/10/12 02:57:46;;;;;;;14.10;3.58;;;;;;;;;;5002793;28;20315;-64
2022/10/12 03:00:11;;;;;;;13.02;3.70;;;;;;;;;;5003146;28;20236;-64
2022/10/12 03:02:37;;;;;;;13.40;3.80;;;;;;;;;;5003430;28;20220;-65
2022/10/12 03:05:02;;;;;;;11.80;4.28;;;;;;;;;;5003034;28;20563;-64
2022/10/12 03:07:27;;;;;;;12.98;3.90;;;;;;;;;;5004065;28;20215;-64
2022/10/12 03:09:53;;;;;;;11.60;3.90;;;;;;;;;;5002695;28;20319;-65
2022/10/12 03:12:18;;;;;;;12.48;3.58;;;;;;;;;;4996475;28;20209;-65
2022/10/12 03:14:43;;;;;;;14.60;3.35;;;;;;;;;;4995526;28;20236;-65
2022/10/12 03:17:08;;;;;;;11.77;3.38;;;;;;;;;;4994169;28;20239;-64
2022/10/12 03:19:34;;;;;;;13.48;3.80;;;;;;;;;;5001712;28;20227;-64
2022/10/12 03:21:59;;;;;;;15.20;3.70;;;;;;;;;;5003671;28;20212;-64
2022/10/12 03:24:24;;;;;;;10.18;3.20;;;;;;;;;;5002110;28;20204;-64
2022/10/12 03:26:49;;;;;;;17.20;5.28;;;;;;;;;;5002626;28;20223;-64
2022/10/12 03:29:15;;;;;;;14.45;4.35;;;;;;;;;;5003239;28;20244;-64
2022/10/12 03:31:40;;;;;;;13.13;4.63;;;;;;;;;;5002615;28;20304;-65
2022/10/12 03:34:05;;;;;;;13.18;5.15;;;;;;;;;;4997914;28;20227;-65
2022/10/12 03:36:31;;;;;;;15.23;5.15;;;;;;;;;;4982247;28;20875;-65
2022/10/12 03:38:56;;;;;;;13.65;5.28;;;;;;;;;;4994822;28;20267;-65
2022/10/12 03:41:21;;;;;;;18.48;5.88;;;;;;;;;;4998852;28;20212;-64
2022/10/12 03:43:47;;;;;;;13.07;5.43;;;;;;;;;;5003609;28;20212;-64
2022/10/12 03:46:12;;;;;;;16.00;5.53;;;;;;;;;;5001746;28;20295;-64
2022/10/12 03:48:37;;;;;;;16.02;5.53;;;;;;;;;;5003111;28;20256;-64
2022/10/12 03:51:03;;;;;;;16.35;5.90;;;;;;;;;;5002402;28;20212;-65
2022/10/12 03:53:30;;;;;;;15.70;5.82;;;;;;;;;;5002432;28;20205;-65
2022/10/12 03:55:55;;;;;;;14.57;5.38;;;;;;;;;;4999793;28;20203;-64
2022/10/12 03:58:20;;;;;;;13.32;5.57;;;;;;;;;;4994537;28;20212;-64
2022/10/12 04:00:45;;;;;;;13.80;6.28;;;;;;;;;;4995175;28;20232;-64
2022/10/12 04:03:11;;;;;;;16.67;6.93;;;;;;;;;;4997124;28;20220;-64
2022/10/12 04:05:36;;;;;;;15.93;6.00;;;;;;;;;;5002208;28;20212;-64
2022/10/12 04:08:01;;;;;;;15.13;5.97;;;;;;;;;;5001946;28;20781;-64
2022/10/12 04:10:26;;;;;;;19.17;6.55;;;;;;;;;;5002989;28;20228;-64
2022/10/12 04:12:52;;;;;;;15.07;6.53;;;;;;;;;;5001865;28;20217;-65
2022/10/12 04:15:17;;;;;;;14.00;5.90;;;;;;;;;;5002315;28;20227;-64
2022/10/12 04:17:43;;;;;;;16.30;6.95;;;;;;;;;;5002097;28;20228;-65
2022/10/12 04:20:08;;;;;;;16.77;6.43;;;;;;;;;;4994420;28;20683;-64
2022/10/12 04:22:33;;;;;;;15.32;6.80;;;;;;;;;;4994470;28;20219;-64
2022/10/12 04:24:58;;;;;;;13.10;5.93;;;;;;;;;;4994904;28;20204;-64
2022/10/12 04:27:24;;;;;;;19.05;6.53;;;;;;;;;;5000484;28;20877;-65
2022/10/12 04:29:49;;;;;;;14.05;6.75;;;;;;;;;;5002735;28;20221;-65
2022/10/12 04:32:14;;;;;;;15.85;7.10;;;;;;;;;;5002515;28;20219;-64
2022/10/12 04:34:39;;;;;;;14.07;6.88;;;;;;;;;;5002870;28;20212;-64
2022/10/12 04:37:05;;;;;;;15.77;7.72;;;;;;;;;;5002826;28;20309;-65
2022/10/12 04:39:30;;;;;;;15.85;7.32;;;;;;;;;;5003159;28;20224;-64
2022/10/12 04:41:55;;;;;;;13.95;7.10;;;;;;;;;;4998003;28;20216;-64
2022/10/12 04:44:21;;;;;;;16.35;7.82;;;;;;;;;;4990411;28;20307;-65
2022/10/12 04:46:46;;;;;;;17.80;7.28;;;;;;;;;;4994406;28;20220;-64
2022/10/12 04:49:11;;;;;;;16.58;6.45;;;;;;;;;;4997642;28;20236;-65
2022/10/12 04:51:36;;;;;;;15.43;6.88;;;;;;;;;;5002089;28;20687;-65
2022/10/12 04:54:02;;;;;;;12.30;6.57;;;;;;;;;;5001388;28;20230;-64
2022/10/12 04:56:27;;;;;;;15.15;6.70;;;;;;;;;;5001375;28;20204;-65
2022/10/12 04:58:52;;;;;;;14.55;6.22;;;;;;;;;;5001539;28;20620;-65
2022/10/12 05:01:18;;;;;;;12.82;6.75;;;;;;;;;;5016781;28;20208;-65
2022/10/12 05:03:43;;;;;;;14.52;7.18;;;;;;;;;;5008619;28;20243;-65
2022/10/12 05:06:08;;;;;;;16.13;7.30;;;;;;;;;;5016870;28;20217;-65
2022/10/12 05:08:34;;;;;;;14.37;6.97;;;;;;;;;;5011833;28;20986;-62
2022/10/12 05:10:59;;;;;;;13.50;6.85;;;;;;;;;;5012266;28;20219;-65
2022/10/12 05:13:25;;;;;;;19.63;8.02;;;;;;;;;;5014754;28;20806;-66
2022/10/12 05:15:50;;;;;;;16.48;7.90;;;;;;;;;;5012153;28;20215;-65
2022/10/12 05:18:16;;;;;;;15.48;7.40;;;;;;;;;;5012472;28;20687;-65
2022/10/12 05:20:41;;;;;;;17.23;7.45;;;;;;;;;;5012394;28;20209;-64
2022/10/12 05:23:06;;;;;;;15.90;8.25;;;;;;;;;;5010737;28;20212;-63
2022/10/12 05:25:34;;;;;;;19.02;7.78;;;;;;;;;;5012262;28;20209;-63
2022/10/12 05:27:59;;;;;;;12.00;6.88;;;;;;;;;;5012142;28;20679;-64
2022/10/12 05:30:24;;;;;;;18.70;8.35;;;;;;;;;;5011066;28;20243;-64
2022/10/12 05:32:50;;;;;;;17.05;8.23;;;;;;;;;;5012255;28;20217;-64
2022/10/12 05:35:15;;;;;;;16.10;8.07;;;;;;;;;;5010850;28;20427;-62
2022/10/12 05:37:40;;;;;;;13.00;7.20;;;;;;;;;;5011121;28;20244;-63
2022/10/12 05:40:06;;;;;;;20.50;8.13;;;;;;;;;;5018157;28;20216;-62
2022/10/12 05:42:31;;;;;;;15.73;7.05;;;;;;;;;;5021549;28;20218;-63
2022/10/12 05:44:56;;;;;;;17.67;8.52;;;;;;;;;;5022459;28;20207;-63
2022/10/12 05:47:22;;;;;;;16.17;7.93;;;;;;;;;;5020080;28;20216;-63
2022/10/12 05:49:47;;;;;;;19.60;7.35;;;;;;;;;;5020286;28;20220;-62
2022/10/12 05:52:12;;;;;;;15.15;7.85;;;;;;;;;;5020799;28;20239;-63
2022/10/12 05:54:37;;;;;;;17.27;7.95;;;;;;;;;;5018465;28;20208;-62
2022/10/12 05:57:03;;;;;;;17.40;8.05;;;;;;;;;;5021686;28;20616;-62
2022/10/12 05:59:28;;;;;;;17.73;8.52;;;;;;;;;;5019369;28;20797;-62
2022/10/12 06:01:53;;;;;;;14.40;6.85;;;;;;;;;;5018859;28;20211;-62
2022/10/12 06:04:19;;;;;;;14.52;7.68;;;;;;;;;;5015112;28;20208;-62
2022/10/12 06:06:44;;;;;;;17.77;8.15;;;;;;;;;;5011848;28;20562;-62
2022/10/12 06:09:11;;;;;;;14.63;7.80;;;;;;;;;;5014891;28;20220;-62
2022/10/12 06:11:36;;;;;;;13.63;7.53;;;;;;;;;;5019808;28;20225;-63
2022/10/12 06:14:01;;;;;;;14.38;7.80;;;;;;;;;;5018747;28;20216;-63
2022/10/12 06:16:27;;;;;;;15.38;7.82;;;;;;;;;;5014846;28;20564;-63
2022/10/12 06:18:52;;;;;;;13.55;7.18;;;;;;;;;;5015291;28;20216;-63
2022/10/12 06:21:17;;;;;;;12.90;7.25;;;;;;;;;;5017700;28;20213;-63
2022/10/12 06:23:42;;;;;;;18.60;8.52;;;;;;;;;;5019018;28;20216;-64
2022/10/12 06:26:08;;;;;;;15.27;7.82;;;;;;;;;;5014053;28;20224;-64
2022/10/12 06:28:33;;;;;;;16.33;8.02;;;;;;;;;;5015287;28;20299;-64
2022/10/12 06:30:58;;;;;;;13.68;7.95;;;;;;;;;;5015040;28;20239;-63
2022/10/12 06:33:24;;;;;;;17.40;8.13;;;;;;;;;;5014069;28;20220;-63
2022/10/12 06:35:49;;;;;;;13.68;7.95;;;;;;;;;;5014878;28;20209;-63
2022/10/12 06:38:14;;;;;;;16.45;8.95;;;;;;;;;;5014524;28;20201;-63
2022/10/12 06:40:40;;;;;;;12.23;7.47;;;;;;;;;;5017078;28;20221;-63
2022/10/12 06:43:05;;;;;;;18.52;8.35;;;;;;;;;;5015825;28;20227;-63
2022/10/12 06:45:30;;;;;;;16.60;7.85;;;;;;;;;;5015359;28;20196;-64
2022/10/12 06:47:56;;;;;;;18.00;8.73;;;;;;;;;;5007226;28;20671;-64
2022/10/12 06:50:21;;;;;;;21.48;10.13;;;;;;;;;;5008588;28;20625;-64
2022/10/12 06:52:46;;;;;;;18.15;9.32;;;;;;;;;;5010770;28;20349;-64
2022/10/12 06:55:11;;;;;;;18.50;9.70;;;;;;;;;;5009467;28;20208;-64
2022/10/12 06:57:37;;;;;;;16.80;8.73;;;;;;;;;;5010806;28;20872;-64
2022/10/12 07:00:03;;;;;;;17.50;10.13;;;;;;;;;;5009538;28;20228;-64
2022/10/12 07:02:28;;;;;;;20.33;9.27;;;;;;;;;;5010120;28;20224;-63
2022/10/12 07:04:54;;;;;;;18.15;9.27;;;;;;;;;;5010854;28;20233;-64
2022/10/12 07:07:20;;;;;;;19.27;8.80;;;;;;;;;;5009807;28;20212;-64
2022/10/12 07:09:45;;;;;;;17.42;8.90;;;;;;;;;;5008959;28;20247;-65
2022/10/12 07:12:10;;;;;;;19.58;9.60;;;;;;;;;;5009147;28;20243;-64
2022/10/12 07:14:35;;;;;;;16.42;9.48;;;;;;;;;;5009878;28;20224;-65
2022/10/12 07:17:01;;;;;;;22.10;9.57;;;;;;;;;;5008139;28;20699;-63
2022/10/12 07:19:26;;;;;;;19.42;10.27;;;;;;;;;;5009495;28;20220;-64
2022/10/12 07:21:51;;;;;;;17.33;9.80;;;;;;;;;;5009978;28;20250;-64
2022/10/12 07:24:16;;;;;;;20.92;9.93;;;;;;;;;;5014280;28;20284;-64
2022/10/12 07:26:42;;;;;;;18.17;10.63;;;;;;;;;;5015083;28;20209;-64
2022/10/12 07:29:08;;;;;;;19.50;9.57;;;;;;;;;;5010668;28;20563;-64
2022/10/12 07:31:33;;;;;;;15.10;8.70;;;;;;;;;;5027893;28;20208;-64
2022/10/12 07:33:58;;;;;;;16.02;8.00;;;;;;;;;;5028802;28;20227;-64
2022/10/12 07:36:24;;;;;;;13.70;8.00;;;;;;;;;;5027575;28;20686;-64
2022/10/12 07:38:49;;;;;;;16.63;8.38;;;;;;;;;;5028714;28;20215;-64
2022/10/12 07:41:14;;;;;;;16.20;8.30;;;;;;;;;;5028006;28;20282;-64
2022/10/12 07:43:40;;;;;;;14.77;7.80;;;;;;;;;;5028033;28;20249;-64
2022/10/12 07:46:05;;;;;;;15.40;6.85;;;;;;;;;;5024321;28;20232;-63
2022/10/12 07:48:30;;;;;;;14.80;7.00;;;;;;;;;;5023741;28;20268;-64
2022/10/12 07:51:01;;;;;;;12.52;6.78;;;;;;;;;;5008276;28;20694;-64
2022/10/12 07:53:26;;;;;;;16.63;6.32;;;;;;;;;;5006301;28;20223;-63
2022/10/12 07:55:52;;;;;;;13.25;6.38;;;;;;;;;;5008101;28;20593;-64
2022/10/12 07:58:18;;;;;;;12.65;5.97;;;;;;;;;;5005640;28;20302;-62
2022/10/12 08:00:43;;;;;;;13.98;6.20;;;;;;;;;;5008832;28;20283;-62
2022/10/12 08:03:08;;;;;;;12.48;5.68;;;;;;;;;;5007046;28;20392;-62
2022/10/12 08:05:36;;;;;;;12.77;5.72;;;;;;;;;;5007635;28;20275;-62
2022/10/12 08:08:02;;;;;;;13.68;6.03;;;;;;;;;;5007982;28;20303;-62
2022/10/12 08:10:27;;;;;;;13.30;5.85;;;;;;;;;;5008504;28;20355;-63
2022/10/12 08:12:52;;;;;;;14.98;5.82;;;;;;;;;;5007492;28;20211;-62
2022/10/12 08:15:17;;;;;;;12.48;6.20;;;;;;;;;;5006154;28;20258;-62
2022/10/12 08:17:43;;;;;;;11.90;5.95;;;;;;;;;;5008937;28;20660;-62
2022/10/12 08:20:08;;;;;;;11.45;5.72;;;;;;;;;;5007742;28;20276;-63
2022/10/12 08:22:34;;;;;;;14.93;6.25;;;;;;;;;;5008915;28;20585;-61
2022/10/12 08:24:59;;;;;;;15.68;5.60;;;;;;;;;;5010673;28;20581;-61
2022/10/12 08:27:24;;;;;;;14.90;6.00;;;;;;;;;;5006843;28;20422;-63
2022/10/12 08:29:49;;;;;;;11.65;5.82;;;;;;;;;;5007979;28;20308;-64
2022/10/12 08:32:15;;;;;;;12.95;5.10;;;;;;;;;;5012459;28;20204;-65
2022/10/12 08:34:40;;;;;;;11.48;5.75;;;;;;;;;;5027133;28;20705;-66
2022/10/12 08:37:05;;;;;;;12.10;5.50;;;;;;;;;;5027474;28;20242;-65
2022/10/12 08:39:30;;;;;;;14.65;5.68;;;;;;;;;;5006856;28;20215;-65
2022/10/12 08:42:02;;;;;;;17.50;6.60;;;;;;;;;;5007228;28;20771;-66
2022/10/12 08:44:37;;;;;;;15.02;6.85;;;;;;;;;;5007822;28;20424;-65
2022/10/12 08:47:04;;;;;;;11.40;6.30;;;;;;;;;;5005574;28;20219;-64
2022/10/12 08:49:30;;;;;;;16.42;6.25;;;;;;;;;;5006252;28;20221;-66
2022/10/12 08:51:55;;;;;;;15.63;6.82;;;;;;;;;;5022684;28;20227;-66
2022/10/12 08:54:23;;;;;;;17.83;6.45;;;;;;;;;;5005953;28;20216;-66
2022/10/12 08:56:50;;;;;;;15.13;6.57;;;;;;;;;;5006517;28;20212;-66
2022/10/12 08:59:16;;;;;;;16.80;6.80;;;;;;;;;;5006842;28;20965;-66
2022/10/12 09:01:56;;;;;;;15.07;7.45;;;;;;;;;;5003399;28;20555;-67
2022/10/12 09:04:33;;;;;;;20.77;7.25;;;;;;;;;;5005616;28;20274;-66
2022/10/12 09:07:14;;;;;;;15.50;6.95;;;;;;;;;;5007629;28;20211;-67
2022/10/12 09:09:57;;;;;;;15.45;6.43;;;;;;;;;;5005118;28;20428;-67
2022/10/12 09:12:30;;;;;;;14.40;6.55;;;;;;;;;;5005724;28;20285;-66
2022/10/12 09:14:59;;;;;;;14.82;6.85;;;;;;;;;;5004431;28;20209;-66
2022/10/12 09:17:26;;;;;;;15.02;6.57;;;;;;;;;;5005585;28;20239;-66
2022/10/12 09:19:55;;;;;;;13.60;6.80;;;;;;;;;;5007214;28;20212;-66
2022/10/12 09:22:21;;;;;;;15.77;7.13;;;;;;;;;;5004576;28;20227;-66
2022/10/12 09:24:47;;;;;;;14.85;7.00;;;;;;;;;;5007034;28;20224;-66
2022/10/12 09:27:14;;;;;;;12.95;6.45;;;;;;;;;;5006793;28;20796;-66
2022/10/12 09:29:39;;;;;;;17.55;7.00;;;;;;;;;;5006638;28;20227;-66
2022/10/12 09:32:12;;;;;;;17.20;7.55;;;;;;;;;;5004423;28;20577;-65
2022/10/12 09:34:37;;;;;;;15.68;7.25;;;;;;;;;;5007288;28;20761;-66
2022/10/12 09:37:02;;;;;;;14.00;6.80;;;;;;;;;;5005008;28;20208;-65
2022/10/12 09:39:29;;;;;;;15.00;6.40;;;;;;;;;;5003942;28;20208;-65
2022/10/12 09:41:54;;;;;;;13.40;6.47;;;;;;;;;;5025423;28;20217;-66
2022/10/12 09:44:28;;;;;;;13.75;6.63;;;;;;;;;;5025590;28;20693;-66
2022/10/12 09:46:55;;;;;;;15.95;6.90;;;;;;;;;;5015042;28;20216;-66
2022/10/12 09:49:21;;;;;;;17.15;7.50;;;;;;;;;;5005476;28;20580;-66
2022/10/12 09:51:46;;;;;;;15.07;7.15;;;;;;;;;;5005064;28;20228;-66
2022/10/12 09:54:16;;;;;;;15.73;7.40;;;;;;;;;;5006157;28;20223;-65
2022/10/12 09:56:43;;;;;;;15.93;7.10;;;;;;;;;;5008029;28;20216;-66
2022/10/12 09:59:18;;;;;;;15.18;7.47;;;;;;;;;;5005539;28;20212;-65
2022/10/12 10:01:55;;;;;;;15.77;8.50;;;;;;;;;;5006928;28;20242;-66
2022/10/12 10:04:22;;;;;;;16.55;7.85;;;;;;;;;;5005325;28;20257;-66
2022/10/12 10:06:47;;;;;;;16.85;8.18;;;;;;;;;;5004805;28;20204;-66
2022/10/12 10:09:25;;;;;;;18.63;8.32;;;;;;;;;;5007056;28;20278;-66
2022/10/12 10:11:50;;;;;;;15.45;8.25;;;;;;;;;;5005841;28;20212;-66
2022/10/12 10:14:15;;;;;;;21.67;8.13;;;;;;;;;;5021181;28;20212;-66
2022/10/12 10:16:48;;;;;;;17.67;7.85;;;;;;;;;;5005108;28;20208;-66
2022/10/12 10:19:17;;;;;;;16.33;8.05;;;;;;;;;;5005771;28;20525;-66
2022/10/12 10:21:42;;;;;;;14.30;8.00;;;;;;;;;;5006084;28;20266;-66
2022/10/12 10:24:20;;;;;;;17.17;8.85;;;;;;;;;;5005306;28;20208;-66
2022/10/12 10:26:51;;;;;;;14.48;8.30;;;;;;;;;;5008292;28;20251;-66
2022/10/12 10:29:25;;;;;;;15.80;8.20;;;;;;;;;;4998986;28;20722;-66
2022/10/12 10:32:10;;;;;;;13.65;8.45;;;;;;;;;;5009945;28;20710;-66
2022/10/12 10:34:35;;;;;;;19.50;9.07;;;;;;;;;;5008579;28;20209;-66
2022/10/12 10:37:00;;;;;;;15.40;8.13;;;;;;;;;;5009843;28;20220;-65
2022/10/12 10:39:30;;;;;;;17.52;7.93;;;;;;;;;;5005320;28;20590;-66
2022/10/12 10:41:56;;;;;;;19.10;8.98;;;;;;;;;;5009223;28;20296;-66
2022/10/12 10:44:28;;;;;;;17.33;8.77;;;;;;;;;;5007895;28;20351;-66
2022/10/12 10:46:54;;;;;;;20.23;9.18;;;;;;;;;;5007684;28;20226;-66
2022/10/12 10:49:29;;;;;;;16.08;8.70;;;;;;;;;;5003987;28;20555;-66
2022/10/12 10:51:56;;;;;;;17.00;9.50;;;;;;;;;;5003751;28;20204;-66
2022/10/12 10:54:21;;;;;;;19.73;9.25;;;;;;;;;;5005975;28;20220;-66
2022/10/12 10:56:49;;;;;;;20.20;9.05;;;;;;;;;;5007892;28;20246;-66
2022/10/12 10:59:16;;;;;;;16.15;9.05;;;;;;;;;;5008195;28;20775;-66
2022/10/12 11:01:42;;;;;;;18.75;8.40;;;;;;;;;;5007334;28;20290;-66
2022/10/12 11:04:10;;;;;;;15.85;9.20;;;;;;;;;;5008035;28;20727;-66
2022/10/12 11:06:46;;;;;;;18.20;9.65;;;;;;;;;;5007628;28;20208;-66
2022/10/12 11:09:15;;;;;;;18.20;9.60;;;;;;;;;;5005687;28;20255;-66
2022/10/12 11:11:42;;;;;;;19.38;9.93;;;;;;;;;;5009826;28;20233;-66
2022/10/12 11:14:13;;;;;;;16.55;9.88;;;;;;;;;;5008781;28;20219;-66
2022/10/12 11:16:40;;;;;;;18.08;9.82;;;;;;;;;;5008364;28;20230;-67
2022/10/12 11:19:09;;;;;;;19.25;10.00;;;;;;;;;;5006885;28;20216;-66
2022/10/12 11:21:37;;;;;;;16.77;9.80;;;;;;;;;;5005803;28;20307;-67
2022/10/12 11:24:11;;;;;;;16.25;9.98;;;;;;;;;;5006087;28;20619;-67
2022/10/12 11:26:37;;;;;;;20.20;10.68;;;;;;;;;;5007891;28;20207;-67
2022/10/12 11:29:10;;;;;;;19.92;10.52;;;;;;;;;;5004664;28;20259;-67
2022/10/12 11:31:36;;;;;;;21.98;10.48;;;;;;;;;;5007800;28;20274;-67
2022/10/12 11:34:04;;;;;;;15.93;9.95;;;;;;;;;;5007404;28;20217;-66
2022/10/12 11:36:30;;;;;;;17.70;9.20;;;;;;;;;;5007041;28;20216;-68
2022/10/12 11:38:56;;;;;;;14.27;9.23;;;;;;;;;;5003891;28;20232;-67
2022/10/12 11:41:30;;;;;;;17.23;9.70;;;;;;;;;;5000756;28;20208;-67
2022/10/12 11:44:01;;;;;;;18.05;8.82;;;;;;;;;;4997659;28;20211;-67
2022/10/12 11:46:32;;;;;;;16.02;8.45;;;;;;;;;;4984816;28;20212;-67
2022/10/12 11:49:00;;;;;;;19.02;9.63;;;;;;;;;;5007450;28;20232;-68
2022/10/12 11:51:26;;;;;;;18.48;9.98;;;;;;;;;;5006775;28;20315;-68
2022/10/12 11:53:56;;;;;;;18.00;9.30;;;;;;;;;;5007012;28;20304;-68
2022/10/12 11:56:24;;;;;;;16.73;9.02;;;;;;;;;;5006460;28;20216;-67
2022/10/12 11:58:51;;;;;;;15.93;9.48;;;;;;;;;;5008222;28;20212;-67
2022/10/12 12:01:19;;;;;;;17.90;9.35;;;;;;;;;;5007294;28;20597;-66
2022/10/12 12:03:44;;;;;;;18.13;9.50;;;;;;;;;;5007908;28;20247;-67
2022/10/12 12:06:28;;;;;;;20.35;9.40;;;;;;;;;;5008318;28;20244;-67
2022/10/12 12:08:54;;;;;;;17.73;9.88;;;;;;;;;;5008242;28;20605;-67
2022/10/12 12:11:20;;;;;;;19.00;9.50;;;;;;;;;;5007223;28;20212;-67
2022/10/12 12:13:46;;;;;;;16.05;8.93;;;;;;;;;;5008191;28;20305;-67
2022/10/12 12:16:11;;;;;;;18.00;9.98;;;;;;;;;;5007198;28;20293;-67
2022/10/12 12:19:03;;;;;;;15.88;9.43;;;;;;;;;;5007760;28;20242;-67
2022/10/12 12:21:28;;;;;;;15.88;9.48;;;;;;;;;;5008153;28;20603;-67
2022/10/12 12:23:54;;;;;;;18.17;8.60;;;;;;;;;;5006358;28;20211;-68
2022/10/12 12:26:20;;;;;;;17.25;8.93;;;;;;;;;;5001194;28;25407;-68
2022/10/12 12:28:46;;;;;;;16.77;9.20;;;;;;;;;;5006605;28;20221;-67
2022/10/12 12:31:13;;;;;;;17.65;9.35;;;;;;;;;;5007111;28;20211;-68
2022/10/12 12:33:41;;;;;;;15.68;8.48;;;;;;;;;;5006933;28;20706;-67
2022/10/12 12:36:06;;;;;;;17.80;7.72;;;;;;;;;;5007463;28;20201;-67
2022/10/12 12:38:33;;;;;;;15.73;7.30;;;;;;;;;;5008503;28;20216;-67
2022/10/12 12:40:58;;;;;;;17.25;8.02;;;;;;;;;;5006272;28;20671;-67
2022/10/12 12:43:27;;;;;;;14.38;7.85;;;;;;;;;;5007326;28;20205;-68
2022/10/12 12:45:53;;;;;;;18.77;7.72;;;;;;;;;;5006728;28;20224;-67
2022/10/12 12:48:39;;;;;;;14.55;7.75;;;;;;;;;;5007381;28;20239;-68
2022/10/12 12:51:07;;;;;;;16.30;7.85;;;;;;;;;;5007249;28;20240;-66
2022/10/12 12:53:32;;;;;;;14.80;7.70;;;;;;;;;;5007089;28;20270;-67
2022/10/12 12:55:59;;;;;;;16.23;8.00;;;;;;;;;;5006429;28;20679;-67
2022/10/12 12:58:39;;;;;;;18.17;8.88;;;;;;;;;;5005504;28;20216;-67
2022/10/12 13:01:12;;;;;;;16.27;8.32;;;;;;;;;;5005756;28;20240;-67
2022/10/12 13:03:48;;;;;;;14.70;7.07;;;;;;;;;;5004431;28;20208;-67
2022/10/12 13:06:22;;;;;;;13.75;6.82;;;;;;;;;;5005593;28;20618;-68
2022/10/12 13:08:51;;;;;;;14.55;6.75;;;;;;;;;;5006844;28;20302;-67
2022/10/12 13:11:24;;;;;;;14.02;6.40;;;;;;;;;;5005617;28;20216;-67
2022/10/12 13:13:57;;;;;;;16.20;7.22;;;;;;;;;;5002666;28;20299;-67
2022/10/12 13:16:25;;;;;;;15.55;6.90;;;;;;;;;;5012721;28;20215;-67
2022/10/12 13:19:01;;;;;;;17.15;8.05;;;;;;;;;;5006357;28;20251;-67
2022/10/12 13:21:28;;;;;;;14.80;7.40;;;;;;;;;;5003251;28;20216;-67
2022/10/12 13:23:56;;;;;;;15.70;7.30;;;;;;;;;;5005544;28;20200;-67
2022/10/12 13:26:23;;;;;;;13.52;6.70;;;;;;;;;;5003492;28;20212;-67
2022/10/12 13:28:48;;;;;;;16.40;6.47;;;;;;;;;;5005885;28;20227;-67
2022/10/12 13:31:20;;;;;;;13.63;6.35;;;;;;;;;;5025548;28;20568;-67
2022/10/12 13:33:53;;;;;;;18.77;6.80;;;;;;;;;;5006088;28;20209;-67
2022/10/12 13:36:20;;;;;;;14.10;6.57;;;;;;;;;;5005024;28;20695;-67
2022/10/12 13:38:45;;;;;;;15.35;6.13;;;;;;;;;;5005879;28;20295;-67
2022/10/12 13:41:12;;;;;;;15.23;5.75;;;;;;;;;;5004657;28;20779;-68
2022/10/12 13:43:41;;;;;;;11.73;5.65;;;;;;;;;;5004074;28;20220;-67
2022/10/12 13:46:06;;;;;;;15.93;6.40;;;;;;;;;;5007764;28;20323;-66
2022/10/12 13:48:32;;;;;;;14.43;5.57;;;;;;;;;;5015182;28;20622;-67
2022/10/12 13:50:58;;;;;;;13.75;5.10;;;;;;;;;;5008809;28;20232;-67
2022/10/12 13:53:23;;;;;;;14.82;5.30;;;;;;;;;;5006570;28;20689;-66
2022/10/12 13:55:56;;;;;;;12.77;5.50;;;;;;;;;;5011043;28;20207;-67
2022/10/12 13:58:22;;;;;;;11.90;5.55;;;;;;;;;;5008400;28;20231;-66
2022/10/12 14:00:47;;;;;;;12.25;5.30;;;;;;;;;;5004341;28;20801;-67
2022/10/12 14:03:13;;;;;;;13.27;5.30;;;;;;;;;;5007409;28;20246;-67
2022/10/12 14:05:42;;;;;;;11.68;4.93;;;;;;;;;;5030570;28;20221;-68
2022/10/12 14:08:12;;;;;;;11.95;5.05;;;;;;;;;;5020763;28;20671;-67
2022/10/12 14:10:39;;;;;;;13.88;4.85;;;;;;;;;;5007295;28;20228;-68
2022/10/12 14:13:05;;;;;;;12.98;4.57;;;;;;;;;;5010469;28;20224;-67
2022/10/12 14:15:32;;;;;;;11.52;4.25;;;;;;;;;;5010299;28;20343;-67
2022/10/12 14:17:58;;;;;;;10.98;4.70;;;;;;;;;;5009610;28;20228;-68
2022/10/12 14:20:26;;;;;;;11.35;4.90;;;;;;;;;;5010273;28;20288;-68
2022/10/12 14:22:51;;;;;;;15.93;5.25;;;;;;;;;;5011115;28;20216;-68
2022/10/12 14:25:18;;;;;;;12.30;5.53;;;;;;;;;;5009686;28;20230;-68
2022/10/12 14:27:43;;;;;;;12.55;5.55;;;;;;;;;;5009795;28;20320;-69
2022/10/12 14:30:17;;;;;;;14.27;5.93;;;;;;;;;;5009958;28;20307;-69